Time;durP1;ratioP1;P1;durP2;ratioP2;P2;SDS_P1;SDS_P2;PMS_P1;PMS_P2;Temp;Humidity;BMP_temperature;BMP_pressure;BME280_temperature;BME280_humidity;BME280_pressure;Samples;Min_cycle;Max_cycle;Signal;HPM_P1;HPM_P2
2021/01/31 00:01:14;;;;;;;9.38;5.75;;;;;;;;;;5073159;28;20074;-74
2021/01/31 00:03:40;;;;;;;7.80;5.47;;;;;;;;;;5073898;28;20151;-74
2021/01/31 00:06:05;;;;;;;9.32;5.80;;;;;;;;;;5073879;28;20032;-74
2021/01/31 00:08:31;;;;;;;8.32;5.90;;;;;;;;;;5073689;28;20082;-74
2021/01/31 00:10:58;;;;;;;8.73;6.20;;;;;;;;;;5073602;28;20036;-74
2021/01/31 00:13:25;;;;;;;10.35;6.45;;;;;;;;;;5073376;28;20040;-73
2021/01/31 00:15:51;;;;;;;11.68;7.22;;;;;;;;;;5073716;28;20119;-74
2021/01/31 00:18:23;;;;;;;9.38;6.55;;;;;;;;;;5055558;28;20032;-74
2021/01/31 00:20:51;;;;;;;9.52;6.78;;;;;;;;;;5073554;28;20378;-74
2021/01/31 00:23:17;;;;;;;9.90;6.43;;;;;;;;;;5073287;28;20060;-74
2021/01/31 00:25:43;;;;;;;10.85;6.85;;;;;;;;;;5073029;28;20096;-74
2021/01/31 00:28:10;;;;;;;10.40;7.05;;;;;;;;;;5073447;28;20075;-74
2021/01/31 00:30:39;;;;;;;9.38;6.80;;;;;;;;;;5073358;28;20033;-73
2021/01/31 00:33:25;;;;;;;8.90;6.40;;;;;;;;;;5073452;28;20078;-74
2021/01/31 00:35:52;;;;;;;;;;;;;;;;;;5073392;28;20047;-74
2021/01/31 00:38:19;;;;;;;11.80;7.18;;;;;;;;;;5072349;28;19916;-73
2021/01/31 00:40:46;;;;;;;10.07;6.75;;;;;;;;;;5073170;28;20037;-74
2021/01/31 00:43:12;;;;;;;10.27;7.18;;;;;;;;;;5073178;28;20047;-74
2021/01/31 00:45:37;;;;;;;11.13;6.78;;;;;;;;;;5073418;28;20047;-74
2021/01/31 00:48:04;;;;;;;10.05;6.88;;;;;;;;;;5055206;28;20033;-74
2021/01/31 00:50:32;;;;;;;10.38;7.50;;;;;;;;;;5053802;28;20033;-74
2021/01/31 00:53:06;;;;;;;10.45;6.60;;;;;;;;;;5038984;28;20055;-74
2021/01/31 00:55:32;;;;;;;11.93;6.43;;;;;;;;;;5054869;28;20171;-74
2021/01/31 00:57:58;;;;;;;9.82;6.75;;;;;;;;;;5025804;28;20119;-74
2021/01/31 01:00:30;;;;;;;9.82;6.78;;;;;;;;;;5018682;28;20029;-74
2021/01/31 01:02:55;;;;;;;9.27;6.70;;;;;;;;;;5052360;28;20410;-74
2021/01/31 01:05:34;;;;;;;10.60;6.38;;;;;;;;;;5035120;28;20399;-74
2021/01/31 01:08:00;;;;;;;10.75;6.72;;;;;;;;;;5052871;28;20029;-74
2021/01/31 01:10:32;;;;;;;9.68;6.40;;;;;;;;;;5053101;28;20128;-74
2021/01/31 01:12:59;;;;;;;10.35;6.90;;;;;;;;;;5037903;28;20033;-74
2021/01/31 01:15:26;;;;;;;10.70;7.05;;;;;;;;;;5039370;28;20127;-74
2021/01/31 01:17:53;;;;;;;13.40;7.32;;;;;;;;;;5056937;28;20374;-74
2021/01/31 01:20:19;;;;;;;11.70;7.15;;;;;;;;;;5072878;28;20065;-74
2021/01/31 01:22:44;;;;;;;11.65;7.40;;;;;;;;;;5076732;28;20401;-74
2021/01/31 01:25:13;;;;;;;9.23;6.47;;;;;;;;;;5076704;28;20381;-74
2021/01/31 01:27:39;;;;;;;10.27;7.55;;;;;;;;;;5076862;28;20051;-74
2021/01/31 01:30:06;;;;;;;10.45;6.30;;;;;;;;;;5076803;28;20041;-74
2021/01/31 01:32:32;;;;;;;11.50;7.25;;;;;;;;;;5076462;28;20106;-74
2021/01/31 01:34:57;;;;;;;10.77;7.22;;;;;;;;;;5076666;28;20470;-74
2021/01/31 01:37:23;;;;;;;10.88;6.88;;;;;;;;;;5076180;28;20036;-74
2021/01/31 01:39:48;;;;;;;12.48;7.00;;;;;;;;;;5076658;28;20033;-74
2021/01/31 01:42:14;;;;;;;11.52;6.72;;;;;;;;;;5076355;28;20059;-74
2021/01/31 01:44:40;;;;;;;12.20;7.22;;;;;;;;;;5076111;28;20497;-74
2021/01/31 01:47:13;;;;;;;11.32;6.97;;;;;;;;;;5057627;28;20071;-74
2021/01/31 01:49:42;;;;;;;10.25;6.47;;;;;;;;;;5076052;28;20024;-74
2021/01/31 01:52:23;;;;;;;10.75;6.80;;;;;;;;;;5076326;28;20040;-74
2021/01/31 01:55:11;;;;;;;10.68;7.10;;;;;;;;;;5076022;28;20048;-74
2021/01/31 01:57:44;;;;;;;9.27;6.43;;;;;;;;;;5076246;28;20036;-74
2021/01/31 02:00:11;;;;;;;10.45;6.18;;;;;;;;;;5076140;28;20397;-74
2021/01/31 02:02:44;;;;;;;8.07;5.82;;;;;;;;;;5075921;28;20028;-74
2021/01/31 02:05:13;;;;;;;8.02;5.57;;;;;;;;;;5075415;28;20040;-74
2021/01/31 02:07:38;;;;;;;9.55;6.30;;;;;;;;;;5075688;28;20041;-74
2021/01/31 02:10:06;;;;;;;10.98;6.28;;;;;;;;;;5075744;28;20043;-74
2021/01/31 02:12:32;;;;;;;10.13;6.57;;;;;;;;;;5075877;28;20041;-74
2021/01/31 02:15:00;;;;;;;11.60;7.00;;;;;;;;;;5075943;28;20032;-74
2021/01/31 02:17:50;;;;;;;8.55;5.88;;;;;;;;;;5075636;28;20089;-74
2021/01/31 02:20:52;;;;;;;7.90;5.68;;;;;;;;;;5075925;28;20024;-74
2021/01/31 02:23:45;;;;;;;9.73;6.32;;;;;;;;;;5074008;28;20474;-74
2021/01/31 02:26:15;;;;;;;13.82;6.57;;;;;;;;;;5075752;28;20067;-74
2021/01/31 02:29:09;;;;;;;8.45;5.75;;;;;;;;;;5075592;28;20032;-74
2021/01/31 02:32:08;;;;;;;10.15;6.20;;;;;;;;;;5075388;28;20043;-74
2021/01/31 02:34:50;;;;;;;10.02;6.70;;;;;;;;;;5075594;28;20469;-74
2021/01/31 02:37:37;;;;;;;9.40;5.80;;;;;;;;;;5075280;28;20078;-74
2021/01/31 02:40:18;;;;;;;8.63;5.40;;;;;;;;;;5075497;28;20466;-74
2021/01/31 02:42:56;;;;;;;9.32;6.45;;;;;;;;;;5075065;28;20462;-74
2021/01/31 02:45:30;;;;;;;9.13;5.97;;;;;;;;;;5075024;28;20132;-74
2021/01/31 02:48:08;;;;;;;9.15;5.90;;;;;;;;;;5057461;28;20097;-74
2021/01/31 02:51:11;;;;;;;9.07;5.15;;;;;;;;;;5075082;28;20091;-74
2021/01/31 02:53:40;;;;;;;7.93;5.13;;;;;;;;;;5029788;28;20621;-74
2021/01/31 02:56:09;;;;;;;8.57;4.88;;;;;;;;;;5055247;28;20037;-74
2021/01/31 02:58:42;;;;;;;10.90;5.80;;;;;;;;;;5054872;28;20041;-74
2021/01/31 03:01:13;;;;;;;6.80;5.28;;;;;;;;;;5054491;28;20045;-74
2021/01/31 03:04:06;;;;;;;11.23;6.00;;;;;;;;;;5054538;28;20127;-74
2021/01/31 03:06:38;;;;;;;7.43;5.00;;;;;;;;;;5039928;28;20041;-74
2021/01/31 03:09:27;;;;;;;9.95;6.00;;;;;;;;;;5074885;28;20071;-74
2021/01/31 03:11:58;;;;;;;9.38;6.28;;;;;;;;;;5074432;28;20550;-74
2021/01/31 03:14:28;;;;;;;7.53;5.20;;;;;;;;;;5074067;28;20085;-74
2021/01/31 03:17:08;;;;;;;7.05;5.10;;;;;;;;;;5073488;28;20112;-74
2021/01/31 03:19:40;;;;;;;10.63;5.78;;;;;;;;;;5072799;28;20029;-74
2021/01/31 03:22:23;;;;;;;7.80;5.60;;;;;;;;;;5073668;28;20225;-74
2021/01/31 03:24:53;;;;;;;8.30;5.60;;;;;;;;;;5055090;28;20040;-74
2021/01/31 03:27:24;;;;;;;9.65;6.25;;;;;;;;;;5073472;28;20041;-74
2021/01/31 03:29:49;;;;;;;8.10;5.22;;;;;;;;;;5073381;28;20040;-74
2021/01/31 03:32:24;;;;;;;9.35;5.95;;;;;;;;;;5073673;28;20174;-74
2021/01/31 03:34:57;;;;;;;8.77;6.15;;;;;;;;;;5073755;28;20359;-74
2021/01/31 03:37:29;;;;;;;8.10;5.45;;;;;;;;;;5073900;28;20439;-74
2021/01/31 03:39:57;;;;;;;7.45;5.57;;;;;;;;;;5074137;28;20143;-74
2021/01/31 03:42:22;;;;;;;12.55;5.30;;;;;;;;;;5073943;28;20032;-74
2021/01/31 03:44:51;;;;;;;6.75;5.10;;;;;;;;;;5073798;28;20067;-74
2021/01/31 03:47:28;;;;;;;7.88;6.22;;;;;;;;;;5073968;28;20045;-74
2021/01/31 03:49:56;;;;;;;10.02;5.75;;;;;;;;;;5073222;28;20040;-74
2021/01/31 03:52:24;;;;;;;8.60;5.90;;;;;;;;;;5073706;28;20097;-74
2021/01/31 03:54:49;;;;;;;9.32;6.03;;;;;;;;;;5073728;28;20433;-74
2021/01/31 03:57:23;;;;;;;7.28;5.43;;;;;;;;;;5055885;28;20028;-74
2021/01/31 03:59:59;;;;;;;8.75;5.88;;;;;;;;;;5073568;28;20094;-74
2021/01/31 04:02:29;;;;;;;7.20;5.20;;;;;;;;;;5072834;28;20020;-74
2021/01/31 04:04:56;;;;;;;9.43;6.30;;;;;;;;;;5055708;28;20037;-74
2021/01/31 04:07:27;;;;;;;10.82;7.05;;;;;;;;;;5073798;28;20439;-74
2021/01/31 04:09:54;;;;;;;9.68;6.40;;;;;;;;;;5073369;28;20071;-74
2021/01/31 04:12:22;;;;;;;7.75;5.60;;;;;;;;;;5073523;28;20040;-75
2021/01/31 04:15:31;;;;;;;8.85;5.90;;;;;;;;;;5073685;28;20032;-75
2021/01/31 04:17:56;;;;;;;12.05;6.93;;;;;;;;;;5072848;28;20028;-74
2021/01/31 04:20:22;;;;;;;14.82;6.30;;;;;;;;;;5073628;28;20550;-74
2021/01/31 04:22:47;;;;;;;8.18;5.72;;;;;;;;;;5073280;28;20036;-75
2021/01/31 04:25:13;;;;;;;8.73;6.13;;;;;;;;;;5073371;28;20070;-74
2021/01/31 04:27:39;;;;;;;9.65;6.60;;;;;;;;;;5055311;28;20029;-74
2021/01/31 04:30:07;;;;;;;10.15;6.80;;;;;;;;;;5073511;28;20449;-74
2021/01/31 04:32:34;;;;;;;9.63;5.93;;;;;;;;;;5073196;28;20539;-74
2021/01/31 04:35:00;;;;;;;8.50;6.03;;;;;;;;;;5072985;28;20135;-74
2021/01/31 04:37:25;;;;;;;9.32;6.72;;;;;;;;;;5073051;28;20123;-74
2021/01/31 04:39:50;;;;;;;8.38;6.07;;;;;;;;;;5055515;28;20028;-75
2021/01/31 04:42:18;;;;;;;8.05;6.50;;;;;;;;;;5072777;28;20098;-74
2021/01/31 04:44:44;;;;;;;9.82;6.65;;;;;;;;;;5072922;28;20037;-74
2021/01/31 04:47:26;;;;;;;10.05;6.93;;;;;;;;;;5072412;28;20043;-75
2021/01/31 04:50:03;;;;;;;11.52;7.03;;;;;;;;;;5072369;28;20036;-74
2021/01/31 04:52:47;;;;;;;9.10;6.93;;;;;;;;;;5073177;28;20093;-74
2021/01/31 04:55:34;;;;;;;9.93;6.75;;;;;;;;;;5073190;28;20068;-74
2021/01/31 04:58:13;;;;;;;10.48;7.20;;;;;;;;;;5072847;28;20032;-74
2021/01/31 05:01:08;;;;;;;9.85;7.18;;;;;;;;;;5073028;28;20040;-74
2021/01/31 05:03:45;;;;;;;11.20;7.30;;;;;;;;;;5073233;28;20036;-74
2021/01/31 05:06:17;;;;;;;9.82;6.97;;;;;;;;;;5072224;28;20033;-75
2021/01/31 05:08:45;;;;;;;9.68;7.13;;;;;;;;;;5072543;28;20124;-74
2021/01/31 05:11:26;;;;;;;11.27;7.40;;;;;;;;;;5072984;28;20363;-74
2021/01/31 05:14:07;;;;;;;12.57;8.38;;;;;;;;;;5073151;28;20090;-74
2021/01/31 05:16:32;;;;;;;9.20;7.35;;;;;;;;;;5072687;28;20531;-74
2021/01/31 05:19:03;;;;;;;11.30;7.68;;;;;;;;;;5072638;28;20045;-74
2021/01/31 05:21:32;;;;;;;14.07;8.10;;;;;;;;;;5072080;28;20047;-75
2021/01/31 05:24:01;;;;;;;14.48;8.52;;;;;;;;;;5072915;28;20101;-75
2021/01/31 05:26:32;;;;;;;14.65;8.98;;;;;;;;;;5072721;28;20028;-74
2021/01/31 05:29:01;;;;;;;16.30;8.40;;;;;;;;;;5072760;28;20032;-75
2021/01/31 05:31:33;;;;;;;11.48;7.97;;;;;;;;;;5072814;28;20029;-75
2021/01/31 05:33:59;;;;;;;12.95;8.50;;;;;;;;;;5072774;28;20086;-75
2021/01/31 05:36:29;;;;;;;11.45;8.57;;;;;;;;;;5072759;28;20531;-75
2021/01/31 05:38:55;;;;;;;14.05;8.30;;;;;;;;;;5072827;28;20037;-75
2021/01/31 05:41:41;;;;;;;12.10;8.05;;;;;;;;;;5072706;28;20040;-75
2021/01/31 05:44:16;;;;;;;14.07;8.38;;;;;;;;;;5072224;28;20135;-74
2021/01/31 05:47:01;;;;;;;15.23;8.27;;;;;;;;;;5072345;28;20568;-75
2021/01/31 05:49:35;;;;;;;12.38;8.63;;;;;;;;;;5072672;28;20040;-74
2021/01/31 05:52:03;;;;;;;13.02;8.60;;;;;;;;;;5071428;28;20044;-75
2021/01/31 05:54:34;;;;;;;15.05;9.50;;;;;;;;;;5072124;28;20055;-74
2021/01/31 05:57:00;;;;;;;17.08;10.35;;;;;;;;;;5071958;28;20090;-74
2021/01/31 05:59:38;;;;;;;18.08;10.13;;;;;;;;;;5055987;28;20044;-74
2021/01/31 06:02:04;;;;;;;15.63;9.23;;;;;;;;;;5075823;28;20028;-74
2021/01/31 06:04:29;;;;;;;13.52;8.68;;;;;;;;;;5075837;28;20471;-75
2021/01/31 06:07:12;;;;;;;12.20;8.15;;;;;;;;;;5075115;28;20051;-74
2021/01/31 06:09:56;;;;;;;13.63;9.15;;;;;;;;;;5075918;28;20035;-74
2021/01/31 06:12:21;;;;;;;12.80;8.02;;;;;;;;;;5075963;28;20144;-74
2021/01/31 06:14:58;;;;;;;12.10;7.93;;;;;;;;;;5076025;28;20112;-75
2021/01/31 06:17:27;;;;;;;12.15;8.75;;;;;;;;;;5074729;28;20036;-74
2021/01/31 06:19:58;;;;;;;11.98;8.52;;;;;;;;;;5075855;28;20508;-75
2021/01/31 06:22:45;;;;;;;14.23;8.55;;;;;;;;;;5075760;28;20064;-74
2021/01/31 06:25:32;;;;;;;11.70;8.50;;;;;;;;;;5037633;28;20127;-75
2021/01/31 06:28:10;;;;;;;12.63;8.63;;;;;;;;;;5055712;28;20612;-74
2021/01/31 06:30:58;;;;;;;12.68;8.57;;;;;;;;;;5055158;28;20037;-74
2021/01/31 06:33:24;;;;;;;14.00;9.13;;;;;;;;;;5055336;28;20076;-74
2021/01/31 06:35:59;;;;;;;13.95;8.98;;;;;;;;;;5055482;28;20076;-74
2021/01/31 06:38:39;;;;;;;14.48;9.40;;;;;;;;;;5055552;28;20041;-74
2021/01/31 06:41:17;;;;;;;16.10;8.77;;;;;;;;;;5053929;28;20159;-75
2021/01/31 06:43:58;;;;;;;12.35;8.13;;;;;;;;;;5055320;28;20083;-75
2021/01/31 06:46:59;;;;;;;13.23;8.77;;;;;;;;;;5037404;28;20045;-74
2021/01/31 06:49:51;;;;;;;12.48;8.40;;;;;;;;;;5013819;28;20136;-75
2021/01/31 06:52:41;;;;;;;11.15;7.43;;;;;;;;;;5065810;28;20044;-74
2021/01/31 06:55:21;;;;;;;11.23;7.38;;;;;;;;;;5075251;28;20119;-75
2021/01/31 06:58:18;;;;;;;13.27;7.90;;;;;;;;;;5073665;28;20095;-74
2021/01/31 07:01:02;;;;;;;13.18;8.68;;;;;;;;;;5074986;28;20040;-74
2021/01/31 07:04:06;;;;;;;12.57;7.82;;;;;;;;;;5074247;28;20039;-75
2021/01/31 07:06:49;;;;;;;13.68;8.55;;;;;;;;;;5074838;28;20524;-74
2021/01/31 07:09:27;;;;;;;14.68;9.48;;;;;;;;;;5074655;28;20115;-75
2021/01/31 07:12:01;;;;;;;15.73;9.55;;;;;;;;;;5074880;28;20070;-74
2021/01/31 07:14:53;;;;;;;20.52;10.88;;;;;;;;;;5074733;28;20119;-74
2021/01/31 07:17:28;;;;;;;18.83;10.57;;;;;;;;;;5056787;28;20049;-74
2021/01/31 07:20:01;;;;;;;17.52;11.70;;;;;;;;;;5074481;28;20683;-74
2021/01/31 07:22:35;;;;;;;18.05;10.93;;;;;;;;;;5056631;28;20040;-74
2021/01/31 07:25:26;;;;;;;17.92;10.73;;;;;;;;;;5074842;28;20047;-73
2021/01/31 07:28:01;;;;;;;18.00;11.20;;;;;;;;;;5068516;28;20061;-75
2021/01/31 07:30:34;;;;;;;17.90;11.73;;;;;;;;;;5096083;28;20505;-75
2021/01/31 07:33:20;;;;;;;20.80;12.52;;;;;;;;;;5080558;28;20439;-74
2021/01/31 07:35:51;;;;;;;22.50;13.70;;;;;;;;;;5060674;28;20100;-74
2021/01/31 07:38:28;;;;;;;28.80;15.98;;;;;;;;;;5075757;28;20024;-74
2021/01/31 07:40:54;;;;;;;;;;;;;;;;;;5075962;28;20033;-75
2021/01/31 07:43:23;;;;;;;28.90;14.75;;;;;;;;;;5075574;28;19913;-76
2021/01/31 07:46:01;;;;;;;23.45;15.13;;;;;;;;;;5077984;28;20040;-75
2021/01/31 07:48:34;;;;;;;23.13;13.38;;;;;;;;;;5057553;28;20040;-74
2021/01/31 07:51:03;;;;;;;19.20;11.95;;;;;;;;;;5058637;28;20028;-74
2021/01/31 07:53:38;;;;;;;19.70;12.02;;;;;;;;;;5059875;28;20052;-74
2021/01/31 07:56:31;;;;;;;17.20;11.52;;;;;;;;;;5075508;28;20036;-74
2021/01/31 07:59:09;;;;;;;15.80;10.20;;;;;;;;;;5077547;28;20466;-75
2021/01/31 08:01:41;;;;;;;16.38;10.60;;;;;;;;;;5060250;28;20044;-75
2021/01/31 08:04:15;;;;;;;15.32;10.10;;;;;;;;;;5074407;28;20036;-74
2021/01/31 08:06:48;;;;;;;17.40;11.40;;;;;;;;;;5056355;28;20047;-73
2021/01/31 08:09:26;;;;;;;17.38;11.57;;;;;;;;;;5074388;28;20067;-73
2021/01/31 08:12:04;;;;;;;16.63;10.07;;;;;;;;;;5074150;28;20401;-73
2021/01/31 08:15:07;;;;;;;16.77;10.38;;;;;;;;;;5057094;28;20040;-74
2021/01/31 08:17:39;;;;;;;18.90;10.32;;;;;;;;;;5073556;28;20362;-74
2021/01/31 08:20:18;;;;;;;20.30;13.25;;;;;;;;;;5075877;28;20058;-74
2021/01/31 08:22:45;;;;;;;22.25;14.98;;;;;;;;;;5076776;28;20127;-74
2021/01/31 08:25:10;;;;;;;23.77;14.45;;;;;;;;;;5059501;28;20016;-76
2021/01/31 08:27:42;;;;;;;23.77;12.73;;;;;;;;;;5042531;28;20033;-75
2021/01/31 08:30:13;;;;;;;19.23;11.18;;;;;;;;;;5077002;28;20033;-74
2021/01/31 08:32:57;;;;;;;16.20;10.93;;;;;;;;;;5075116;28;20056;-74
2021/01/31 08:35:36;;;;;;;17.15;10.70;;;;;;;;;;5074904;28;20040;-77
2021/01/31 08:38:28;;;;;;;17.33;10.98;;;;;;;;;;5074594;28;20101;-77
2021/01/31 08:41:05;;;;;;;13.35;9.40;;;;;;;;;;5040320;28;20438;-77
2021/01/31 08:43:50;;;;;;;13.77;9.65;;;;;;;;;;5048209;28;20057;-78
2021/01/31 08:46:32;;;;;;;14.15;10.00;;;;;;;;;;5047438;28;20093;-78
2021/01/31 08:49:09;;;;;;;12.43;9.25;;;;;;;;;;5044079;28;20044;-77
2021/01/31 08:51:37;;;;;;;13.10;8.82;;;;;;;;;;5034466;28;20061;-74
2021/01/31 08:54:17;;;;;;;12.88;8.40;;;;;;;;;;5051877;28;20083;-74
2021/01/31 08:56:56;;;;;;;11.30;8.52;;;;;;;;;;5036955;28;20104;-74
2021/01/31 08:59:28;;;;;;;12.85;8.43;;;;;;;;;;5036600;28;20047;-75
2021/01/31 09:02:02;;;;;;;12.38;8.02;;;;;;;;;;5054258;28;20033;-75
2021/01/31 09:04:28;;;;;;;14.45;9.48;;;;;;;;;;5035836;28;20033;-75
2021/01/31 09:07:00;;;;;;;13.18;8.05;;;;;;;;;;5053643;28;20033;-74
2021/01/31 09:09:29;;;;;;;10.77;7.45;;;;;;;;;;5035373;28;20029;-74
2021/01/31 09:12:11;;;;;;;10.88;7.50;;;;;;;;;;5038409;28;20033;-76
2021/01/31 09:14:39;;;;;;;10.95;8.05;;;;;;;;;;5020570;28;20091;-72
2021/01/31 09:17:06;;;;;;;10.88;7.43;;;;;;;;;;5054726;28;20366;-75
2021/01/31 09:19:31;;;;;;;10.98;7.10;;;;;;;;;;5045260;28;20073;-75
2021/01/31 09:22:03;;;;;;;11.65;7.55;;;;;;;;;;5058450;28;20036;-78
2021/01/31 09:24:32;;;;;;;10.07;7.45;;;;;;;;;;5073351;28;20036;-73
2021/01/31 09:26:57;;;;;;;11.18;6.45;;;;;;;;;;5053977;28;20044;-73
2021/01/31 09:29:26;;;;;;;9.77;6.55;;;;;;;;;;5073250;28;20035;-74
2021/01/31 09:32:03;;;;;;;10.07;6.75;;;;;;;;;;5073152;28;20413;-74
2021/01/31 09:34:29;;;;;;;8.60;6.05;;;;;;;;;;5075510;28;20136;-74
2021/01/31 09:37:09;;;;;;;8.27;6.20;;;;;;;;;;5077422;28;20111;-74
2021/01/31 09:39:37;;;;;;;9.38;6.70;;;;;;;;;;5077272;28;20037;-74
2021/01/31 09:42:04;;;;;;;9.27;5.93;;;;;;;;;;5075975;28;20378;-74
2021/01/31 09:44:31;;;;;;;7.55;5.60;;;;;;;;;;5058818;28;20444;-75
2021/01/31 09:46:57;;;;;;;10.55;6.05;;;;;;;;;;5076878;28;20406;-74
2021/01/31 09:49:26;;;;;;;9.00;5.90;;;;;;;;;;5076607;28;20037;-74
2021/01/31 09:51:52;;;;;;;14.27;5.80;;;;;;;;;;5075857;28;20121;-72
2021/01/31 09:54:29;;;;;;;7.82;5.40;;;;;;;;;;5055910;28;20094;-73
2021/01/31 09:56:57;;;;;;;10.68;6.13;;;;;;;;;;5056057;28;20126;-73
2021/01/31 09:59:28;;;;;;;9.57;5.80;;;;;;;;;;5056176;28;20024;-73
2021/01/31 10:02:11;;;;;;;8.40;6.38;;;;;;;;;;5056229;28;20072;-74
2021/01/31 10:04:40;;;;;;;7.75;5.75;;;;;;;;;;5056004;28;20370;-74
2021/01/31 10:07:09;;;;;;;7.85;5.70;;;;;;;;;;5056091;28;20116;-73
2021/01/31 10:09:43;;;;;;;8.45;5.82;;;;;;;;;;5056026;28;20466;-74
2021/01/31 10:12:11;;;;;;;8.00;6.03;;;;;;;;;;5056145;28;20117;-74
2021/01/31 10:14:48;;;;;;;8.80;5.88;;;;;;;;;;5056049;28;20379;-75
2021/01/31 10:17:28;;;;;;;9.15;6.50;;;;;;;;;;5056023;28;20406;-74
2021/01/31 10:20:28;;;;;;;10.15;6.30;;;;;;;;;;5039046;28;20116;-75
2021/01/31 10:23:00;;;;;;;8.35;6.10;;;;;;;;;;5053143;28;20504;-74
2021/01/31 10:25:26;;;;;;;8.80;6.20;;;;;;;;;;5056848;28;20075;-74
2021/01/31 10:27:51;;;;;;;9.55;6.35;;;;;;;;;;5056630;28;20064;-75
2021/01/31 10:30:39;;;;;;;13.88;6.43;;;;;;;;;;5056471;28;20082;-75
2021/01/31 10:33:05;;;;;;;11.02;8.13;;;;;;;;;;5056393;28;20048;-73
2021/01/31 10:35:37;;;;;;;10.63;7.80;;;;;;;;;;5055950;28;20044;-74
2021/01/31 10:38:25;;;;;;;11.52;8.48;;;;;;;;;;5038179;28;20170;-73
2021/01/31 10:40:50;;;;;;;9.75;6.45;;;;;;;;;;5055728;28;20406;-74
2021/01/31 10:43:18;;;;;;;8.65;6.30;;;;;;;;;;5055503;28;20053;-74
2021/01/31 10:45:44;;;;;;;9.63;6.32;;;;;;;;;;5054893;28;20140;-74
2021/01/31 10:48:09;;;;;;;10.95;6.22;;;;;;;;;;5062487;28;20111;-74
2021/01/31 10:50:34;;;;;;;18.58;8.90;;;;;;;;;;5075731;28;20052;-74
2021/01/31 10:53:00;;;;;;;9.40;6.57;;;;;;;;;;5075627;28;20367;-74
2021/01/31 10:55:25;;;;;;;9.10;5.88;;;;;;;;;;5075574;28;20029;-74
2021/01/31 10:57:51;;;;;;;10.00;6.57;;;;;;;;;;5075912;28;20040;-75
2021/01/31 11:00:16;;;;;;;9.93;6.80;;;;;;;;;;5076707;28;20033;-74
2021/01/31 11:02:42;;;;;;;8.68;5.93;;;;;;;;;;5077030;28;20036;-77
2021/01/31 11:05:08;;;;;;;8.75;6.03;;;;;;;;;;5076262;28;20032;-75
2021/01/31 11:07:34;;;;;;;11.30;7.20;;;;;;;;;;5075770;28;20071;-75
2021/01/31 11:10:00;;;;;;;11.35;7.32;;;;;;;;;;5075121;28;20031;-74
2021/01/31 11:12:26;;;;;;;12.05;6.90;;;;;;;;;;5057076;28;20398;-74
2021/01/31 11:14:51;;;;;;;9.00;5.88;;;;;;;;;;5075152;28;20097;-74
2021/01/31 11:17:17;;;;;;;10.68;7.18;;;;;;;;;;5075170;28;20446;-74
2021/01/31 11:19:42;;;;;;;8.10;6.38;;;;;;;;;;5074934;28;20037;-74
2021/01/31 11:22:07;;;;;;;8.68;6.38;;;;;;;;;;5074069;28;20055;-74
2021/01/31 11:24:33;;;;;;;9.00;6.47;;;;;;;;;;5064026;28;20041;-77
2021/01/31 11:26:59;;;;;;;9.13;6.60;;;;;;;;;;5063394;28;20098;-74
2021/01/31 11:29:24;;;;;;;9.20;6.63;;;;;;;;;;5059633;28;20041;-80
2021/01/31 11:31:50;;;;;;;9.45;6.28;;;;;;;;;;5052589;28;20041;-80
2021/01/31 11:34:15;;;;;;;9.07;5.88;;;;;;;;;;5042974;28;20044;-80
2021/01/31 11:36:40;;;;;;;8.55;6.25;;;;;;;;;;5041930;28;20051;-81
2021/01/31 11:39:09;;;;;;;9.13;5.85;;;;;;;;;;5070617;28;20033;-83
2021/01/31 11:41:36;;;;;;;8.60;6.05;;;;;;;;;;5076527;28;20498;-82
2021/01/31 11:44:02;;;;;;;11.77;6.57;;;;;;;;;;5039525;28;20034;-83
2021/01/31 11:46:28;;;;;;;9.00;6.18;;;;;;;;;;5038562;28;20087;-80
2021/01/31 11:48:53;;;;;;;9.77;7.00;;;;;;;;;;5050355;28;20509;-81
2021/01/31 11:51:19;;;;;;;11.55;6.90;;;;;;;;;;5054570;28;20041;-82
2021/01/31 11:53:44;;;;;;;8.60;6.18;;;;;;;;;;5051897;28;20082;-78
2021/01/31 11:56:10;;;;;;;15.15;7.45;;;;;;;;;;5048981;28;20056;-77
2021/01/31 11:58:36;;;;;;;8.85;6.65;;;;;;;;;;5055625;28;20036;-78
2021/01/31 12:01:02;;;;;;;10.32;6.75;;;;;;;;;;5041058;28;20029;-79
2021/01/31 12:03:27;;;;;;;8.88;6.35;;;;;;;;;;5052969;28;20441;-80
2021/01/31 12:05:53;;;;;;;8.82;6.53;;;;;;;;;;5056728;28;20017;-78
2021/01/31 12:08:18;;;;;;;9.75;7.18;;;;;;;;;;5056098;28;20044;-78
2021/01/31 12:10:44;;;;;;;9.73;7.28;;;;;;;;;;5056556;28;20044;-80
2021/01/31 12:13:10;;;;;;;10.07;6.75;;;;;;;;;;5055427;28;20033;-81
2021/01/31 12:15:35;;;;;;;9.13;6.55;;;;;;;;;;5054996;28;20450;-78
2021/01/31 12:18:01;;;;;;;9.38;6.47;;;;;;;;;;5054275;28;20411;-77
2021/01/31 12:20:26;;;;;;;10.20;7.40;;;;;;;;;;5058795;28;20068;-81
2021/01/31 12:22:51;;;;;;;8.40;6.43;;;;;;;;;;5063342;28;20067;-81
2021/01/31 12:25:18;;;;;;;9.40;6.85;;;;;;;;;;5061993;28;20505;-80
2021/01/31 12:27:51;;;;;;;8.18;6.05;;;;;;;;;;5057594;28;20041;-81
2021/01/31 12:30:20;;;;;;;10.10;6.55;;;;;;;;;;5057654;28;20053;-79
2021/01/31 12:32:45;;;;;;;8.13;5.75;;;;;;;;;;5053059;28;20037;-79
2021/01/31 12:35:11;;;;;;;12.98;7.60;;;;;;;;;;5053129;28;20094;-80
2021/01/31 12:37:36;;;;;;;10.23;6.90;;;;;;;;;;5055037;28;20091;-78
2021/01/31 12:40:05;;;;;;;12.23;6.55;;;;;;;;;;5055593;28;20029;-78
2021/01/31 12:42:31;;;;;;;8.60;6.82;;;;;;;;;;5053929;28;20041;-78
2021/01/31 12:44:56;;;;;;;13.45;9.38;;;;;;;;;;5071857;28;20052;-77
2021/01/31 12:47:22;;;;;;;10.38;7.40;;;;;;;;;;5074609;28;20031;-78
2021/01/31 12:49:47;;;;;;;8.75;6.22;;;;;;;;;;5073877;28;20402;-77
2021/01/31 12:52:13;;;;;;;8.70;6.70;;;;;;;;;;5076522;28;20067;-77
2021/01/31 12:54:40;;;;;;;9.52;6.45;;;;;;;;;;5024589;28;20032;-77
2021/01/31 12:57:06;;;;;;;9.20;6.78;;;;;;;;;;5055980;28;20040;-78
2021/01/31 12:59:32;;;;;;;10.57;6.80;;;;;;;;;;5073257;28;20059;-78
2021/01/31 13:01:59;;;;;;;8.55;6.28;;;;;;;;;;5074542;28;20039;-78
2021/01/31 13:04:24;;;;;;;10.20;6.70;;;;;;;;;;5075296;28;20091;-79
2021/01/31 13:06:50;;;;;;;9.13;6.68;;;;;;;;;;5075381;28;20071;-78
2021/01/31 13:09:15;;;;;;;7.78;6.10;;;;;;;;;;5078655;28;20475;-78
2021/01/31 13:11:41;;;;;;;12.25;6.57;;;;;;;;;;5078608;28;20105;-78
2021/01/31 13:14:06;;;;;;;9.63;6.82;;;;;;;;;;5044090;28;20079;-78
2021/01/31 13:16:31;;;;;;;9.55;6.55;;;;;;;;;;5078642;28;20040;-77
2021/01/31 13:18:57;;;;;;;9.30;7.00;;;;;;;;;;5038283;28;20032;-77
2021/01/31 13:21:22;;;;;;;8.43;6.28;;;;;;;;;;5057876;28;20509;-78
2021/01/31 13:23:47;;;;;;;10.20;6.75;;;;;;;;;;5057772;28;20380;-79
2021/01/31 13:26:13;;;;;;;11.52;6.35;;;;;;;;;;5057496;28;20037;-77
2021/01/31 13:28:38;;;;;;;10.25;7.45;;;;;;;;;;5057799;28;20041;-78
2021/01/31 13:31:04;;;;;;;10.57;7.78;;;;;;;;;;5023645;28;20087;-77
2021/01/31 13:33:29;;;;;;;8.93;6.20;;;;;;;;;;5057608;28;20115;-77
2021/01/31 13:35:55;;;;;;;10.18;6.93;;;;;;;;;;5023345;28;20471;-77
2021/01/31 13:38:20;;;;;;;8.98;6.45;;;;;;;;;;5057712;28;20096;-77
2021/01/31 13:40:46;;;;;;;9.57;6.60;;;;;;;;;;5057455;28;20032;-77
2021/01/31 13:43:12;;;;;;;10.27;7.63;;;;;;;;;;5056539;28;20025;-78
2021/01/31 13:45:38;;;;;;;9.88;6.93;;;;;;;;;;5056499;28;20029;-78
2021/01/31 13:48:04;;;;;;;12.00;8.18;;;;;;;;;;5059756;28;20383;-78
2021/01/31 13:50:29;;;;;;;11.88;8.00;;;;;;;;;;5059660;28;20033;-78
2021/01/31 13:52:54;;;;;;;17.55;10.10;;;;;;;;;;5059690;28;20486;-78
2021/01/31 13:55:20;;;;;;;14.63;9.30;;;;;;;;;;5059650;28;20421;-78
2021/01/31 13:57:47;;;;;;;15.20;8.90;;;;;;;;;;5060021;28;20043;-78
2021/01/31 14:00:14;;;;;;;12.57;8.40;;;;;;;;;;5059119;28;20036;-78
2021/01/31 14:02:40;;;;;;;10.05;6.97;;;;;;;;;;5059016;28;20071;-78
2021/01/31 14:05:07;;;;;;;9.10;6.63;;;;;;;;;;5059472;28;20394;-78
2021/01/31 14:07:32;;;;;;;10.45;7.93;;;;;;;;;;5059275;28;20102;-78
2021/01/31 14:09:58;;;;;;;13.20;7.88;;;;;;;;;;5059473;28;20496;-78
2021/01/31 14:12:23;;;;;;;13.75;7.43;;;;;;;;;;5059782;28;20514;-78
2021/01/31 14:14:49;;;;;;;11.07;7.60;;;;;;;;;;5060147;28;20486;-78
2021/01/31 14:17:14;;;;;;;11.32;7.50;;;;;;;;;;5059306;28;20036;-79
2021/01/31 14:19:40;;;;;;;10.68;7.70;;;;;;;;;;5060045;28;20037;-78
2021/01/31 14:22:05;;;;;;;11.77;8.07;;;;;;;;;;5081266;28;20039;-78
2021/01/31 14:24:31;;;;;;;10.35;7.30;;;;;;;;;;5080628;28;20426;-78
2021/01/31 14:26:56;;;;;;;12.48;8.13;;;;;;;;;;5099433;28;20043;-78
2021/01/31 14:29:21;;;;;;;12.23;8.05;;;;;;;;;;5098791;28;20089;-78
2021/01/31 14:31:47;;;;;;;12.00;8.52;;;;;;;;;;5081001;28;20036;-79
2021/01/31 14:34:13;;;;;;;10.85;7.50;;;;;;;;;;5081171;28;20477;-78
2021/01/31 14:36:38;;;;;;;12.75;7.68;;;;;;;;;;5081547;28;20066;-78
2021/01/31 14:39:04;;;;;;;11.38;7.35;;;;;;;;;;5100594;28;20047;-78
2021/01/31 14:41:29;;;;;;;10.57;7.57;;;;;;;;;;5100768;28;20095;-78
2021/01/31 14:43:55;;;;;;;10.85;7.30;;;;;;;;;;5099826;28;20078;-78
2021/01/31 14:46:20;;;;;;;11.00;7.78;;;;;;;;;;5099726;28;20039;-78
2021/01/31 14:48:46;;;;;;;11.02;7.05;;;;;;;;;;5099932;28;20048;-78
2021/01/31 14:51:11;;;;;;;12.27;8.88;;;;;;;;;;5086112;28;20039;-78
2021/01/31 14:53:37;;;;;;;11.68;7.80;;;;;;;;;;5079763;28;20047;-78
2021/01/31 14:56:04;;;;;;;12.50;8.63;;;;;;;;;;5079275;28;20119;-78
2021/01/31 14:58:29;;;;;;;12.77;8.05;;;;;;;;;;5078853;28;20037;-78